This is the latest recevied weather packets stored in our database for station/object IK6ZNK-3. If no packets are shown the sender has not sent any weather packets the latest 10 day(s).
| Time | Temp. | Humidity | Pressure | Rain* | Wind** | Luminosity | Snow |
|---|---|---|---|---|---|---|---|
| 1777959606 | 16.11° C | 56% | 1006.8 hPa | 0 mm | - | - | - |
| 1777959007 | 16.11° C | 54% | 1006.5 hPa | 0 mm | - | - | - |
| 1777958406 | 16.11° C | 55% | 1006.5 hPa | 0 mm | - | - | - |
| 1777957806 | 16.67° C | 46% | 1006.5 hPa | 0 mm | - | - | - |
| 1777957206 | 16.67° C | 44% | 1006.5 hPa | 0 mm | - | - | - |
| 1777956606 | 15.56° C | 47% | 1006.4 hPa | 0 mm | - | - | - |
| 1777956006 | 15.56° C | 58% | 1006.6 hPa | 0 mm | - | - | - |
| 1777955406 | 15° C | 61% | 1006.4 hPa | 0 mm | - | - | - |
| 1777954806 | 15° C | 62% | 1006.6 hPa | 0 mm | - | - | - |
| 1777954206 | 15° C | 63% | 1006.5 hPa | 0 mm | - | - | - |
| 1777953606 | 15° C | 64% | 1006.5 hPa | 0 mm | - | - | - |
| 1777953006 | 14.44° C | 67% | 1006.5 hPa | 0 mm | - | - | - |
| 1777952406 | 14.44° C | 66% | 1006.7 hPa | 0 mm | - | - | - |
| 1777951806 | 14.44° C | 66% | 1006.9 hPa | 0 mm | - | - | - |
| 1777951206 | 14.44° C | 65% | 1006.7 hPa | 0 mm | - | - | - |
| 1777950607 | 14.44° C | 62% | 1006.8 hPa | 0 mm | - | - | - |
| 1777950007 | 14.44° C | 63% | 1007 hPa | 0 mm | - | - | - |
| 1777949407 | 14.44° C | 66% | 1007 hPa | 0 mm | - | - | - |
| 1777948806 | 15° C | 61% | 1007 hPa | 0 mm | - | - | - |
| 1777948206 | 16.11° C | 56% | 1007.2 hPa | 0 mm | - | - | - |
| 1777947606 | 17.22° C | 45% | 1007.1 hPa | 0 mm | - | - | - |
| 1777947006 | 16.67° C | 46% | 1007.2 hPa | 0 mm | - | - | - |
| 1777946407 | 16.67° C | 48% | 1007.3 hPa | 0 mm | - | - | - |
| 1777945806 | 16.67° C | 47% | 1007.5 hPa | 0 mm | - | - | - |
| 1777945207 | 15.56° C | 50% | 1007.7 hPa | 0 mm | - | - | - |
* Rain latest hour (hover to see other rain measurements)
** Current wind speed in m/s (hover to see current wind gust speed)